sensor_id;sensor_type;location;lat;lon;timestamp;P1;durP1;ratioP1;P2;durP2;ratioP2
40044;SDS011;25735;48.122;11.422;2022-11-20T00:01:44;4.32;;;2.22;;
40044;SDS011;25735;48.122;11.422;2022-11-20T00:04:10;2.60;;;2.03;;
40044;SDS011;25735;48.122;11.422;2022-11-20T00:06:36;2.30;;;2.10;;
40044;SDS011;25735;48.122;11.422;2022-11-20T00:09:01;2.40;;;2.03;;
40044;SDS011;25735;48.122;11.422;2022-11-20T00:11:27;2.50;;;1.98;;
40044;SDS011;25735;48.122;11.422;2022-11-20T00:13:56;3.00;;;2.17;;
40044;SDS011;25735;48.122;11.422;2022-11-20T00:16:23;4.38;;;2.53;;
40044;SDS011;25735;48.122;11.422;2022-11-20T00:18:50;3.58;;;2.42;;
40044;SDS011;25735;48.122;11.422;2022-11-20T00:23:42;2.50;;;2.20;;
40044;SDS011;25735;48.122;11.422;2022-11-20T00:26:10;2.33;;;2.13;;
40044;SDS011;25735;48.122;11.422;2022-11-20T00:28:37;2.50;;;1.80;;
40044;SDS011;25735;48.122;11.422;2022-11-20T00:31:10;3.22;;;2.05;;
40044;SDS011;25735;48.122;11.422;2022-11-20T00:33:37;2.92;;;2.28;;
40044;SDS011;25735;48.122;11.422;2022-11-20T00:36:04;2.97;;;2.13;;
40044;SDS011;25735;48.122;11.422;2022-11-20T00:38:31;2.63;;;1.80;;
40044;SDS011;25735;48.122;11.422;2022-11-20T00:40:57;3.97;;;2.75;;
40044;SDS011;25735;48.122;11.422;2022-11-20T00:43:24;2.65;;;2.15;;
40044;SDS011;25735;48.122;11.422;2022-11-20T00:45:50;2.30;;;2.08;;
40044;SDS011;25735;48.122;11.422;2022-11-20T00:48:16;3.30;;;2.53;;
40044;SDS011;25735;48.122;11.422;2022-11-20T00:50:41;3.30;;;2.30;;
40044;SDS011;25735;48.122;11.422;2022-11-20T00:53:06;2.20;;;2.00;;
40044;SDS011;25735;48.122;11.422;2022-11-20T00:55:32;2.35;;;2.08;;
40044;SDS011;25735;48.122;11.422;2022-11-20T00:57:57;3.05;;;2.22;;
40044;SDS011;25735;48.122;11.422;2022-11-20T01:00:22;2.90;;;2.35;;
40044;SDS011;25735;48.122;11.422;2022-11-20T01:02:47;3.30;;;2.40;;
40044;SDS011;25735;48.122;11.422;2022-11-20T01:05:13;3.33;;;2.08;;
40044;SDS011;25735;48.122;11.422;2022-11-20T01:07:38;4.00;;;2.53;;
40044;SDS011;25735;48.122;11.422;2022-11-20T01:10:03;2.45;;;2.25;;
40044;SDS011;25735;48.122;11.422;2022-11-20T01:12:29;2.08;;;1.88;;
40044;SDS011;25735;48.122;11.422;2022-11-20T01:14:54;3.15;;;2.30;;
40044;SDS011;25735;48.122;11.422;2022-11-20T01:17:19;3.95;;;2.17;;
40044;SDS011;25735;48.122;11.422;2022-11-20T01:19:45;4.82;;;2.38;;
40044;SDS011;25735;48.122;11.422;2022-11-20T01:22:13;2.80;;;1.90;;
40044;SDS011;25735;48.122;11.422;2022-11-20T01:24:39;6.38;;;2.40;;
40044;SDS011;25735;48.122;11.422;2022-11-20T01:27:04;4.15;;;2.83;;
40044;SDS011;25735;48.122;11.422;2022-11-20T01:29:29;3.58;;;2.03;;
40044;SDS011;25735;48.122;11.422;2022-11-20T01:31:54;2.50;;;2.17;;
40044;SDS011;25735;48.122;11.422;2022-11-20T01:34:20;4.22;;;2.85;;
40044;SDS011;25735;48.122;11.422;2022-11-20T01:36:47;2.17;;;1.73;;
40044;SDS011;25735;48.122;11.422;2022-11-20T01:39:16;2.20;;;1.95;;
40044;SDS011;25735;48.122;11.422;2022-11-20T01:41:44;2.75;;;2.08;;
40044;SDS011;25735;48.122;11.422;2022-11-20T01:47:19;2.63;;;1.98;;
40044;SDS011;25735;48.122;11.422;2022-11-20T01:49:49;2.42;;;1.98;;
40044;SDS011;25735;48.122;11.422;2022-11-20T01:52:39;3.83;;;2.08;;
40044;SDS011;25735;48.122;11.422;2022-11-20T01:55:09;2.60;;;2.17;;
40044;SDS011;25735;48.122;11.422;2022-11-20T01:57:41;3.58;;;2.22;;
40044;SDS011;25735;48.122;11.422;2022-11-20T02:00:11;2.30;;;1.92;;
40044;SDS011;25735;48.122;11.422;2022-11-20T02:02:38;2.60;;;2.40;;
40044;SDS011;25735;48.122;11.422;2022-11-20T02:05:35;4.03;;;2.17;;
40044;SDS011;25735;48.122;11.422;2022-11-20T02:08:03;3.28;;;2.28;;
40044;SDS011;25735;48.122;11.422;2022-11-20T02:10:30;3.97;;;2.30;;
40044;SDS011;25735;48.122;11.422;2022-11-20T02:12:56;3.15;;;2.10;;
40044;SDS011;25735;48.122;11.422;2022-11-20T02:15:41;2.80;;;2.35;;
40044;SDS011;25735;48.122;11.422;2022-11-20T02:18:06;3.00;;;2.42;;
40044;SDS011;25735;48.122;11.422;2022-11-20T02:20:34;2.88;;;2.35;;
40044;SDS011;25735;48.122;11.422;2022-11-20T02:23:02;2.75;;;2.13;;
40044;SDS011;25735;48.122;11.422;2022-11-20T02:25:33;3.30;;;2.53;;
40044;SDS011;25735;48.122;11.422;2022-11-20T02:28:01;3.58;;;2.70;;
40044;SDS011;25735;48.122;11.422;2022-11-20T02:30:27;3.58;;;2.80;;
40044;SDS011;25735;48.122;11.422;2022-11-20T02:32:52;2.50;;;2.30;;
40044;SDS011;25735;48.122;11.422;2022-11-20T02:37:42;3.45;;;2.90;;
40044;SDS011;25735;48.122;11.422;2022-11-20T02:40:08;3.47;;;2.83;;
40044;SDS011;25735;48.122;11.422;2022-11-20T02:42:35;4.15;;;2.67;;
40044;SDS011;25735;48.122;11.422;2022-11-20T02:45:00;3.50;;;2.90;;
40044;SDS011;25735;48.122;11.422;2022-11-20T02:47:26;3.22;;;2.50;;
40044;SDS011;25735;48.122;11.422;2022-11-20T02:49:51;4.97;;;2.85;;
40044;SDS011;25735;48.122;11.422;2022-11-20T02:52:16;2.75;;;2.47;;
40044;SDS011;25735;48.122;11.422;2022-11-20T02:54:41;3.10;;;2.47;;
40044;SDS011;25735;48.122;11.422;2022-11-20T02:57:06;3.00;;;2.70;;
40044;SDS011;25735;48.122;11.422;2022-11-20T02:59:32;2.22;;;1.85;;
40044;SDS011;25735;48.122;11.422;2022-11-20T03:01:57;2.63;;;2.42;;
40044;SDS011;25735;48.122;11.422;2022-11-20T03:04:22;3.70;;;2.50;;
40044;SDS011;25735;48.122;11.422;2022-11-20T03:06:47;3.50;;;3.08;;
40044;SDS011;25735;48.122;11.422;2022-11-20T03:09:13;3.55;;;2.65;;
40044;SDS011;25735;48.122;11.422;2022-11-20T03:11:38;2.63;;;2.22;;
40044;SDS011;25735;48.122;11.422;2022-11-20T03:14:04;3.10;;;2.50;;
40044;SDS011;25735;48.122;11.422;2022-11-20T03:16:30;2.83;;;1.92;;
40044;SDS011;25735;48.122;11.422;2022-11-20T03:18:56;2.78;;;2.30;;
40044;SDS011;25735;48.122;11.422;2022-11-20T03:21:22;3.95;;;2.63;;
40044;SDS011;25735;48.122;11.422;2022-11-20T03:23:47;3.63;;;2.60;;
40044;SDS011;25735;48.122;11.422;2022-11-20T03:28:46;4.90;;;2.30;;
40044;SDS011;25735;48.122;11.422;2022-11-20T03:31:16;3.03;;;2.58;;
40044;SDS011;25735;48.122;11.422;2022-11-20T03:33:43;3.63;;;2.50;;
40044;SDS011;25735;48.122;11.422;2022-11-20T03:36:09;3.03;;;2.65;;
40044;SDS011;25735;48.122;11.422;2022-11-20T03:38:36;3.28;;;2.83;;
40044;SDS011;25735;48.122;11.422;2022-11-20T03:41:02;3.92;;;2.92;;
40044;SDS011;25735;48.122;11.422;2022-11-20T03:43:29;2.35;;;2.15;;
40044;SDS011;25735;48.122;11.422;2022-11-20T03:45:55;3.75;;;2.58;;
40044;SDS011;25735;48.122;11.422;2022-11-20T03:48:20;3.35;;;2.88;;
40044;SDS011;25735;48.122;11.422;2022-11-20T03:50:45;4.47;;;2.88;;
40044;SDS011;25735;48.122;11.422;2022-11-20T03:53:12;2.47;;;2.10;;
40044;SDS011;25735;48.122;11.422;2022-11-20T03:55:38;2.97;;;2.45;;
40044;SDS011;25735;48.122;11.422;2022-11-20T03:58:03;3.25;;;2.88;;
40044;SDS011;25735;48.122;11.422;2022-11-20T04:00:29;2.85;;;2.15;;
40044;SDS011;25735;48.122;11.422;2022-11-20T04:02:57;3.72;;;2.90;;
40044;SDS011;25735;48.122;11.422;2022-11-20T04:05:23;3.50;;;2.60;;
40044;SDS011;25735;48.122;11.422;2022-11-20T04:07:48;3.58;;;2.78;;
40044;SDS011;25735;48.122;11.422;2022-11-20T04:10:14;2.67;;;2.20;;
40044;SDS011;25735;48.122;11.422;2022-11-20T04:12:39;4.20;;;2.53;;
40044;SDS011;25735;48.122;11.422;2022-11-20T04:15:04;3.08;;;2.78;;
40044;SDS011;25735;48.122;11.422;2022-11-20T04:17:30;5.05;;;2.60;;
40044;SDS011;25735;48.122;11.422;2022-11-20T04:19:55;3.03;;;2.15;;
40044;SDS011;25735;48.122;11.422;2022-11-20T04:22:20;2.88;;;2.40;;
40044;SDS011;25735;48.122;11.422;2022-11-20T04:24:46;2.72;;;1.88;;
40044;SDS011;25735;48.122;11.422;2022-11-20T04:27:11;3.00;;;2.40;;
40044;SDS011;25735;48.122;11.422;2022-11-20T04:29:36;2.90;;;2.70;;
40044;SDS011;25735;48.122;11.422;2022-11-20T04:32:01;4.97;;;2.15;;
40044;SDS011;25735;48.122;11.422;2022-11-20T04:34:27;4.18;;;2.40;;
40044;SDS011;25735;48.122;11.422;2022-11-20T04:36:52;4.47;;;2.35;;
40044;SDS011;25735;48.122;11.422;2022-11-20T04:39:17;2.80;;;2.17;;
40044;SDS011;25735;48.122;11.422;2022-11-20T04:41:42;2.42;;;2.22;;
40044;SDS011;25735;48.122;11.422;2022-11-20T04:44:08;3.28;;;2.65;;
40044;SDS011;25735;48.122;11.422;2022-11-20T04:46:34;3.83;;;2.55;;
40044;SDS011;25735;48.122;11.422;2022-11-20T04:49:02;2.65;;;2.42;;
40044;SDS011;25735;48.122;11.422;2022-11-20T04:51:28;3.25;;;2.83;;
40044;SDS011;25735;48.122;11.422;2022-11-20T04:53:53;2.90;;;2.60;;
40044;SDS011;25735;48.122;11.422;2022-11-20T04:56:19;2.83;;;2.40;;
40044;SDS011;25735;48.122;11.422;2022-11-20T04:58:44;5.28;;;2.88;;
40044;SDS011;25735;48.122;11.422;2022-11-20T05:01:10;2.92;;;2.60;;
40044;SDS011;25735;48.122;11.422;2022-11-20T05:03:36;3.97;;;3.38;;
40044;SDS011;25735;48.122;11.422;2022-11-20T05:06:02;4.75;;;2.72;;
40044;SDS011;25735;48.122;11.422;2022-11-20T05:08:29;3.10;;;2.80;;
40044;SDS011;25735;48.122;11.422;2022-11-20T05:10:59;3.15;;;2.85;;
40044;SDS011;25735;48.122;11.422;2022-11-20T05:13:28;3.47;;;2.78;;
40044;SDS011;25735;48.122;11.422;2022-11-20T05:15:53;3.00;;;2.70;;
40044;SDS011;25735;48.122;11.422;2022-11-20T05:18:19;3.05;;;2.60;;
40044;SDS011;25735;48.122;11.422;2022-11-20T05:20:44;5.97;;;2.60;;
40044;SDS011;25735;48.122;11.422;2022-11-20T05:23:09;4.32;;;2.90;;
40044;SDS011;25735;48.122;11.422;2022-11-20T05:25:34;3.25;;;2.95;;
40044;SDS011;25735;48.122;11.422;2022-11-20T05:28:00;3.67;;;2.53;;
40044;SDS011;25735;48.122;11.422;2022-11-20T05:30:25;2.80;;;2.55;;
40044;SDS011;25735;48.122;11.422;2022-11-20T05:32:50;3.05;;;2.75;;
40044;SDS011;25735;48.122;11.422;2022-11-20T05:35:16;3.40;;;2.20;;
40044;SDS011;25735;48.122;11.422;2022-11-20T05:37:41;3.50;;;2.67;;
40044;SDS011;25735;48.122;11.422;2022-11-20T05:40:06;3.03;;;2.35;;
40044;SDS011;25735;48.122;11.422;2022-11-20T05:42:32;2.55;;;2.28;;
40044;SDS011;25735;48.122;11.422;2022-11-20T05:44:58;2.60;;;2.40;;
40044;SDS011;25735;48.122;11.422;2022-11-20T05:47:25;2.80;;;2.60;;
40044;SDS011;25735;48.122;11.422;2022-11-20T05:49:51;4.00;;;3.17;;
40044;SDS011;25735;48.122;11.422;2022-11-20T05:52:16;3.03;;;2.55;;
40044;SDS011;25735;48.122;11.422;2022-11-20T05:54:42;2.85;;;2.63;;
40044;SDS011;25735;48.122;11.422;2022-11-20T05:57:07;2.53;;;2.10;;
40044;SDS011;25735;48.122;11.422;2022-11-20T05:59:33;4.22;;;2.40;;
40044;SDS011;25735;48.122;11.422;2022-11-20T06:01:58;3.00;;;2.53;;
40044;SDS011;25735;48.122;11.422;2022-11-20T06:04:24;3.42;;;2.78;;
40044;SDS011;25735;48.122;11.422;2022-11-20T06:06:49;4.00;;;2.70;;
40044;SDS011;25735;48.122;11.422;2022-11-20T06:09:14;4.03;;;2.55;;
40044;SDS011;25735;48.122;11.422;2022-11-20T06:11:39;3.10;;;2.40;;
40044;SDS011;25735;48.122;11.422;2022-11-20T06:14:05;4.30;;;2.72;;
40044;SDS011;25735;48.122;11.422;2022-11-20T06:16:31;2.58;;;2.38;;
40044;SDS011;25735;48.122;11.422;2022-11-20T06:18:56;3.00;;;2.45;;
40044;SDS011;25735;48.122;11.422;2022-11-20T06:21:21;3.33;;;2.60;;
40044;SDS011;25735;48.122;11.422;2022-11-20T06:23:47;2.80;;;2.50;;
40044;SDS011;25735;48.122;11.422;2022-11-20T06:26:17;2.55;;;2.35;;
40044;SDS011;25735;48.122;11.422;2022-11-20T06:28:50;2.63;;;2.22;;
40044;SDS011;25735;48.122;11.422;2022-11-20T06:31:17;3.13;;;2.05;;
40044;SDS011;25735;48.122;11.422;2022-11-20T06:33:44;3.80;;;1.90;;
40044;SDS011;25735;48.122;11.422;2022-11-20T06:36:10;2.05;;;1.85;;
40044;SDS011;25735;48.122;11.422;2022-11-20T06:38:37;2.15;;;1.85;;
40044;SDS011;25735;48.122;11.422;2022-11-20T06:41:03;1.88;;;1.67;;
40044;SDS011;25735;48.122;11.422;2022-11-20T06:43:29;1.42;;;1.33;;
40044;SDS011;25735;48.122;11.422;2022-11-20T06:45:55;2.25;;;1.80;;
40044;SDS011;25735;48.122;11.422;2022-11-20T06:48:22;1.92;;;1.77;;
40044;SDS011;25735;48.122;11.422;2022-11-20T06:50:48;3.28;;;1.92;;
40044;SDS011;25735;48.122;11.422;2022-11-20T06:53:13;2.72;;;1.58;;
40044;SDS011;25735;48.122;11.422;2022-11-20T06:55:41;1.63;;;1.52;;
40044;SDS011;25735;48.122;11.422;2022-11-20T06:58:08;3.17;;;1.73;;
40044;SDS011;25735;48.122;11.422;2022-11-20T07:00:34;1.83;;;1.52;;
40044;SDS011;25735;48.122;11.422;2022-11-20T07:03:02;1.40;;;1.23;;
40044;SDS011;25735;48.122;11.422;2022-11-20T07:05:28;1.67;;;1.42;;
40044;SDS011;25735;48.122;11.422;2022-11-20T07:07:55;2.25;;;1.73;;
40044;SDS011;25735;48.122;11.422;2022-11-20T07:10:21;1.90;;;1.65;;
40044;SDS011;25735;48.122;11.422;2022-11-20T07:12:49;2.75;;;1.58;;
40044;SDS011;25735;48.122;11.422;2022-11-20T07:15:17;2.72;;;1.45;;
40044;SDS011;25735;48.122;11.422;2022-11-20T07:17:43;1.55;;;1.35;;
40044;SDS011;25735;48.122;11.422;2022-11-20T07:20:08;1.70;;;1.50;;
40044;SDS011;25735;48.122;11.422;2022-11-20T07:22:34;3.13;;;1.80;;
40044;SDS011;25735;48.122;11.422;2022-11-20T07:24:59;1.48;;;1.38;;
40044;SDS011;25735;48.122;11.422;2022-11-20T07:27:24;2.38;;;1.73;;
40044;SDS011;25735;48.122;11.422;2022-11-20T07:29:50;2.38;;;1.70;;
40044;SDS011;25735;48.122;11.422;2022-11-20T07:32:15;3.38;;;2.35;;
40044;SDS011;25735;48.122;11.422;2022-11-20T07:34:40;3.38;;;2.50;;
40044;SDS011;25735;48.122;11.422;2022-11-20T07:37:06;2.08;;;1.88;;
40044;SDS011;25735;48.122;11.422;2022-11-20T07:39:31;2.95;;;2.33;;
40044;SDS011;25735;48.122;11.422;2022-11-20T07:41:56;2.42;;;2.20;;
40044;SDS011;25735;48.122;11.422;2022-11-20T07:44:21;3.30;;;2.60;;
40044;SDS011;25735;48.122;11.422;2022-11-20T07:46:47;2.83;;;2.20;;
40044;SDS011;25735;48.122;11.422;2022-11-20T07:49:12;2.60;;;2.20;;
40044;SDS011;25735;48.122;11.422;2022-11-20T07:51:37;3.35;;;2.53;;
40044;SDS011;25735;48.122;11.422;2022-11-20T07:54:02;2.47;;;1.92;;
40044;SDS011;25735;48.122;11.422;2022-11-20T07:56:28;2.40;;;2.17;;
40044;SDS011;25735;48.122;11.422;2022-11-20T07:58:53;2.95;;;2.30;;
40044;SDS011;25735;48.122;11.422;2022-11-20T08:01:18;3.40;;;2.45;;
40044;SDS011;25735;48.122;11.422;2022-11-20T08:03:44;2.92;;;2.63;;
40044;SDS011;25735;48.122;11.422;2022-11-20T08:06:09;2.38;;;2.17;;
40044;SDS011;25735;48.122;11.422;2022-11-20T08:08:34;2.15;;;1.60;;
40044;SDS011;25735;48.122;11.422;2022-11-20T08:11:00;2.38;;;1.85;;
40044;SDS011;25735;48.122;11.422;2022-11-20T08:13:45;3.60;;;2.20;;
40044;SDS011;25735;48.122;11.422;2022-11-20T08:16:29;2.60;;;2.40;;
40044;SDS011;25735;48.122;11.422;2022-11-20T08:18:54;2.67;;;1.85;;
40044;SDS011;25735;48.122;11.422;2022-11-20T08:21:20;2.55;;;1.73;;
40044;SDS011;25735;48.122;11.422;2022-11-20T08:23:45;1.83;;;1.73;;
40044;SDS011;25735;48.122;11.422;2022-11-20T08:26:10;3.30;;;2.08;;
40044;SDS011;25735;48.122;11.422;2022-11-20T08:28:36;2.33;;;1.83;;
40044;SDS011;25735;48.122;11.422;2022-11-20T08:31:02;2.30;;;1.67;;
40044;SDS011;25735;48.122;11.422;2022-11-20T08:33:28;2.28;;;2.08;;
40044;SDS011;25735;48.122;11.422;2022-11-20T08:35:58;2.25;;;1.98;;
40044;SDS011;25735;48.122;11.422;2022-11-20T08:38:28;4.45;;;2.45;;
40044;SDS011;25735;48.122;11.422;2022-11-20T08:40:57;3.58;;;1.85;;
40044;SDS011;25735;48.122;11.422;2022-11-20T08:43:43;2.78;;;1.90;;
40044;SDS011;25735;48.122;11.422;2022-11-20T08:46:08;2.28;;;1.58;;
40044;SDS011;25735;48.122;11.422;2022-11-20T08:48:33;2.60;;;2.00;;
40044;SDS011;25735;48.122;11.422;2022-11-20T08:50:58;1.73;;;1.50;;
40044;SDS011;25735;48.122;11.422;2022-11-20T08:53:24;3.72;;;1.55;;
40044;SDS011;25735;48.122;11.422;2022-11-20T08:55:50;6.47;;;1.60;;
40044;SDS011;25735;48.122;11.422;2022-11-20T08:58:15;2.25;;;2.05;;
40044;SDS011;25735;48.122;11.422;2022-11-20T09:00:40;3.75;;;2.20;;
40044;SDS011;25735;48.122;11.422;2022-11-20T09:03:05;4.07;;;1.73;;
40044;SDS011;25735;48.122;11.422;2022-11-20T09:05:31;2.35;;;1.85;;
40044;SDS011;25735;48.122;11.422;2022-11-20T09:07:56;2.00;;;1.40;;
40044;SDS011;25735;48.122;11.422;2022-11-20T09:10:22;1.73;;;1.58;;
40044;SDS011;25735;48.122;11.422;2022-11-20T09:12:51;3.47;;;1.38;;
40044;SDS011;25735;48.122;11.422;2022-11-20T09:15:17;2.33;;;1.55;;
40044;SDS011;25735;48.122;11.422;2022-11-20T09:17:50;2.53;;;1.08;;
40044;SDS011;25735;48.122;11.422;2022-11-20T09:20:16;1.70;;;1.50;;
40044;SDS011;25735;48.122;11.422;2022-11-20T09:22:42;2.25;;;1.65;;
40044;SDS011;25735;48.122;11.422;2022-11-20T09:25:07;3.00;;;1.00;;
40044;SDS011;25735;48.122;11.422;2022-11-20T09:27:33;1.48;;;1.27;;
40044;SDS011;25735;48.122;11.422;2022-11-20T09:29:58;1.40;;;0.90;;
40044;SDS011;25735;48.122;11.422;2022-11-20T09:32:23;1.60;;;1.23;;
40044;SDS011;25735;48.122;11.422;2022-11-20T09:34:48;1.48;;;1.20;;
40044;SDS011;25735;48.122;11.422;2022-11-20T09:37:14;2.80;;;1.40;;
40044;SDS011;25735;48.122;11.422;2022-11-20T09:39:39;2.15;;;1.10;;
40044;SDS011;25735;48.122;11.422;2022-11-20T09:42:12;1.80;;;1.40;;
40044;SDS011;25735;48.122;11.422;2022-11-20T09:47:17;2.00;;;1.80;;
40044;SDS011;25735;48.122;11.422;2022-11-20T09:50:03;1.20;;;1.05;;
40044;SDS011;25735;48.122;11.422;2022-11-20T09:52:43;3.00;;;1.60;;
40044;SDS011;25735;48.122;11.422;2022-11-20T09:55:30;3.17;;;1.50;;
40044;SDS011;25735;48.122;11.422;2022-11-20T09:57:56;1.40;;;0.95;;
40044;SDS011;25735;48.122;11.422;2022-11-20T10:00:24;3.55;;;1.05;;
40044;SDS011;25735;48.122;11.422;2022-11-20T10:03:13;1.75;;;1.35;;
40044;SDS011;25735;48.122;11.422;2022-11-20T10:05:45;1.13;;;1.05;;
40044;SDS011;25735;48.122;11.422;2022-11-20T10:08:33;1.50;;;1.40;;
40044;SDS011;25735;48.122;11.422;2022-11-20T10:17:02;1.60;;;1.20;;
40044;SDS011;25735;48.122;11.422;2022-11-20T10:22:31;1.75;;;0.98;;
40044;SDS011;25735;48.122;11.422;2022-11-20T10:25:18;1.17;;;1.02;;
40044;SDS011;25735;48.122;11.422;2022-11-20T10:27:49;1.35;;;0.90;;
40044;SDS011;25735;48.122;11.422;2022-11-20T10:30:40;1.30;;;1.08;;
40044;SDS011;25735;48.122;11.422;2022-11-20T10:33:15;1.90;;;1.15;;
40044;SDS011;25735;48.122;11.422;2022-11-20T10:35:45;1.00;;;0.80;;
40044;SDS011;25735;48.122;11.422;2022-11-20T10:38:25;1.75;;;1.20;;
40044;SDS011;25735;48.122;11.422;2022-11-20T10:40:59;1.02;;;0.70;;
40044;SDS011;25735;48.122;11.422;2022-11-20T10:43:46;1.90;;;1.25;;
40044;SDS011;25735;48.122;11.422;2022-11-20T10:46:17;1.70;;;0.95;;
40044;SDS011;25735;48.122;11.422;2022-11-20T10:48:45;4.20;;;1.20;;
40044;SDS011;25735;48.122;11.422;2022-11-20T10:51:30;1.20;;;1.00;;
40044;SDS011;25735;48.122;11.422;2022-11-20T10:56:45;1.15;;;0.98;;
40044;SDS011;25735;48.122;11.422;2022-11-20T11:01:59;0.88;;;0.85;;
40044;SDS011;25735;48.122;11.422;2022-11-20T11:04:35;1.17;;;0.85;;
40044;SDS011;25735;48.122;11.422;2022-11-20T11:07:26;1.70;;;0.88;;
40044;SDS011;25735;48.122;11.422;2022-11-20T11:09:55;1.67;;;1.00;;
40044;SDS011;25735;48.122;11.422;2022-11-20T11:12:22;2.03;;;1.08;;
40044;SDS011;25735;48.122;11.422;2022-11-20T11:14:50;1.10;;;1.00;;
40044;SDS011;25735;48.122;11.422;2022-11-20T11:17:30;2.50;;;0.90;;
40044;SDS011;25735;48.122;11.422;2022-11-20T11:19:58;0.88;;;0.77;;
40044;SDS011;25735;48.122;11.422;2022-11-20T11:22:24;0.70;;;0.70;;
40044;SDS011;25735;48.122;11.422;2022-11-20T11:24:52;2.65;;;1.13;;
40044;SDS011;25735;48.122;11.422;2022-11-20T11:27:18;1.17;;;1.00;;
40044;SDS011;25735;48.122;11.422;2022-11-20T11:29:43;1.63;;;1.30;;
40044;SDS011;25735;48.122;11.422;2022-11-20T11:32:19;2.38;;;1.25;;
40044;SDS011;25735;48.122;11.422;2022-11-20T11:34:58;1.20;;;1.08;;
40044;SDS011;25735;48.122;11.422;2022-11-20T11:37:24;1.10;;;0.98;;
40044;SDS011;25735;48.122;11.422;2022-11-20T11:39:57;1.65;;;1.45;;
40044;SDS011;25735;48.122;11.422;2022-11-20T11:42:22;2.40;;;1.10;;
40044;SDS011;25735;48.122;11.422;2022-11-20T11:44:48;1.85;;;1.50;;
40044;SDS011;25735;48.122;11.422;2022-11-20T11:52:36;4.00;;;1.50;;
40044;SDS011;25735;48.122;11.422;2022-11-20T11:55:05;1.77;;;1.15;;
40044;SDS011;25735;48.122;11.422;2022-11-20T12:10:53;0.70;;;0.70;;
40044;SDS011;25735;48.122;11.422;2022-11-20T12:16:18;1.65;;;1.40;;
40044;SDS011;25735;48.122;11.422;2022-11-20T12:18:44;0.90;;;0.77;;
40044;SDS011;25735;48.122;11.422;2022-11-20T12:21:20;1.63;;;1.05;;
40044;SDS011;25735;48.122;11.422;2022-11-20T12:27:02;1.45;;;1.30;;
40044;SDS011;25735;48.122;11.422;2022-11-20T12:29:32;1.15;;;1.02;;
40044;SDS011;25735;48.122;11.422;2022-11-20T12:32:46;1.90;;;1.20;;
40044;SDS011;25735;48.122;11.422;2022-11-20T12:41:12;1.40;;;0.95;;
40044;SDS011;25735;48.122;11.422;2022-11-20T12:50:22;1.70;;;1.10;;
40044;SDS011;25735;48.122;11.422;2022-11-20T12:53:11;0.82;;;0.60;;
40044;SDS011;25735;48.122;11.422;2022-11-20T13:04:07;1.25;;;0.80;;
40044;SDS011;25735;48.122;11.422;2022-11-20T13:06:37;1.23;;;1.13;;
40044;SDS011;25735;48.122;11.422;2022-11-20T13:09:06;1.38;;;1.27;;
40044;SDS011;25735;48.122;11.422;2022-11-20T13:11:47;2.70;;;1.20;;
40044;SDS011;25735;48.122;11.422;2022-11-20T13:17:45;1.60;;;1.30;;
40044;SDS011;25735;48.122;11.422;2022-11-20T13:20:17;2.58;;;1.90;;
40044;SDS011;25735;48.122;11.422;2022-11-20T13:22:44;5.63;;;2.45;;
40044;SDS011;25735;48.122;11.422;2022-11-20T13:27:49;3.10;;;2.00;;
40044;SDS011;25735;48.122;11.422;2022-11-20T13:30:16;3.28;;;1.98;;
40044;SDS011;25735;48.122;11.422;2022-11-20T13:32:50;4.10;;;1.67;;
40044;SDS011;25735;48.122;11.422;2022-11-20T13:35:26;2.33;;;1.92;;
40044;SDS011;25735;48.122;11.422;2022-11-20T13:38:00;4.55;;;2.00;;
40044;SDS011;25735;48.122;11.422;2022-11-20T13:40:31;2.42;;;1.85;;
40044;SDS011;25735;48.122;11.422;2022-11-20T13:43:08;1.75;;;1.65;;
40044;SDS011;25735;48.122;11.422;2022-11-20T13:45:57;4.22;;;2.28;;
40044;SDS011;25735;48.122;11.422;2022-11-20T13:48:25;3.85;;;2.22;;
40044;SDS011;25735;48.122;11.422;2022-11-20T13:53:54;4.03;;;1.67;;
40044;SDS011;25735;48.122;11.422;2022-11-20T13:59:39;2.55;;;1.77;;
40044;SDS011;25735;48.122;11.422;2022-11-20T14:02:11;1.75;;;1.38;;
40044;SDS011;25735;48.122;11.422;2022-11-20T14:04:41;2.40;;;1.70;;
40044;SDS011;25735;48.122;11.422;2022-11-20T14:07:09;1.83;;;1.57;;
40044;SDS011;25735;48.122;11.422;2022-11-20T14:09:35;2.00;;;1.50;;
40044;SDS011;25735;48.122;11.422;2022-11-20T14:12:01;1.63;;;1.50;;
40044;SDS011;25735;48.122;11.422;2022-11-20T14:14:29;1.90;;;1.10;;
40044;SDS011;25735;48.122;11.422;2022-11-20T14:17:06;1.98;;;1.38;;
40044;SDS011;25735;48.122;11.422;2022-11-20T14:19:32;1.83;;;0.82;;
40044;SDS011;25735;48.122;11.422;2022-11-20T14:22:16;2.97;;;1.45;;
40044;SDS011;25735;48.122;11.422;2022-11-20T14:24:44;3.05;;;1.58;;
40044;SDS011;25735;48.122;11.422;2022-11-20T14:27:20;1.77;;;1.17;;
40044;SDS011;25735;48.122;11.422;2022-11-20T14:29:46;2.03;;;1.08;;
40044;SDS011;25735;48.122;11.422;2022-11-20T14:32:20;2.90;;;1.35;;
40044;SDS011;25735;48.122;11.422;2022-11-20T14:34:49;1.35;;;1.25;;
40044;SDS011;25735;48.122;11.422;2022-11-20T14:37:23;1.92;;;1.15;;
40044;SDS011;25735;48.122;11.422;2022-11-20T14:39:53;0.93;;;0.65;;
40044;SDS011;25735;48.122;11.422;2022-11-20T14:44:55;1.25;;;0.70;;
40044;SDS011;25735;48.122;11.422;2022-11-20T14:47:26;1.65;;;0.80;;
40044;SDS011;25735;48.122;11.422;2022-11-20T14:49:54;1.45;;;0.70;;
40044;SDS011;25735;48.122;11.422;2022-11-20T14:52:22;0.90;;;0.73;;
40044;SDS011;25735;48.122;11.422;2022-11-20T14:57:34;0.55;;;0.50;;
40044;SDS011;25735;48.122;11.422;2022-11-20T15:02:31;0.50;;;0.50;;
40044;SDS011;25735;48.122;11.422;2022-11-20T15:04:57;0.95;;;0.70;;
40044;SDS011;25735;48.122;11.422;2022-11-20T15:07:25;0.73;;;0.73;;
40044;SDS011;25735;48.122;11.422;2022-11-20T15:12:31;0.50;;;0.50;;
40044;SDS011;25735;48.122;11.422;2022-11-20T15:14:58;0.75;;;0.75;;
40044;SDS011;25735;48.122;11.422;2022-11-20T15:17:25;0.88;;;0.70;;
40044;SDS011;25735;48.122;11.422;2022-11-20T15:19:50;1.45;;;0.88;;
40044;SDS011;25735;48.122;11.422;2022-11-20T15:22:17;1.10;;;0.90;;
40044;SDS011;25735;48.122;11.422;2022-11-20T15:24:42;1.10;;;0.88;;
40044;SDS011;25735;48.122;11.422;2022-11-20T15:27:07;1.67;;;1.20;;
40044;SDS011;25735;48.122;11.422;2022-11-20T15:29:34;2.10;;;1.20;;
40044;SDS011;25735;48.122;11.422;2022-11-20T15:31:59;1.60;;;1.50;;
40044;SDS011;25735;48.122;11.422;2022-11-20T15:34:26;1.60;;;1.00;;
40044;SDS011;25735;48.122;11.422;2022-11-20T15:36:52;2.92;;;1.35;;
40044;SDS011;25735;48.122;11.422;2022-11-20T15:39:18;0.85;;;0.82;;
40044;SDS011;25735;48.122;11.422;2022-11-20T15:41:43;1.15;;;1.00;;
40044;SDS011;25735;48.122;11.422;2022-11-20T15:44:08;0.90;;;0.68;;
40044;SDS011;25735;48.122;11.422;2022-11-20T15:46:38;2.13;;;1.30;;
40044;SDS011;25735;48.122;11.422;2022-11-20T15:49:10;1.40;;;1.00;;
40044;SDS011;25735;48.122;11.422;2022-11-20T15:51:43;1.75;;;1.40;;
40044;SDS011;25735;48.122;11.422;2022-11-20T15:54:12;2.00;;;1.67;;
40044;SDS011;25735;48.122;11.422;2022-11-20T15:56:39;1.40;;;0.93;;
40044;SDS011;25735;48.122;11.422;2022-11-20T15:59:04;1.98;;;1.65;;
40044;SDS011;25735;48.122;11.422;2022-11-20T16:01:29;2.03;;;1.48;;
40044;SDS011;25735;48.122;11.422;2022-11-20T16:03:56;4.15;;;2.20;;
40044;SDS011;25735;48.122;11.422;2022-11-20T16:06:21;1.70;;;1.60;;
40044;SDS011;25735;48.122;11.422;2022-11-20T16:08:46;2.92;;;2.08;;
40044;SDS011;25735;48.122;11.422;2022-11-20T16:11:12;3.58;;;2.40;;
40044;SDS011;25735;48.122;11.422;2022-11-20T16:13:38;2.67;;;1.60;;
40044;SDS011;25735;48.122;11.422;2022-11-20T16:16:23;2.30;;;1.60;;